Estació municipal de Arbúcies (La Selva, Parc natural del Montseny)

Consulta les dades en temps real de l'estació municipal de Arbúcies





Hora UTC 06:45
Temperatura 20.6 ºC
Humitat 62.8 %
Pressió 1011.8 hPa
Pluja 0.0 mm
Velocitat vent 0.9 km/h
Direcció vent SSW
Radiació solar 215.1 W/m²

Dades diàries 2026-08-31



Hora UTC (hivern +1h; estiu +2h)
Temperatura (ºC) Humitat (%) Pressió (hPa) Velocitat vent (km/h) Precipitació (mm) Radiació solar (W/m²)
Hora UTC Aire Humitat Pressió Vel. Dir. Vel. Max Dir. Intent. màx 5 min. Rad. Sol.
00:05 19.4 58.4 1011.8 4.4 SW 9.9 SW 0.0 0.0
00:10 20.4 53.0 1011.8 7.9 SW 14.5 SW 0.0 0.0
00:15 20.3 54.5 1011.8 3.9 SSW 10.6 SW 0.0 0.0
00:20 19.4 59.4 1011.8 0.1 WSW 4.6 WSW 0.0 0.0
00:25 18.9 61.5 1011.8 4.2 SW 8.1 SSW 0.0 0.0
00:30 18.6 62.9 1011.8 2.1 SW 7.1 SW 0.0 0.0
00:35 18.4 63.9 1011.8 0.0 SSW 0.4 S 0.0 0.0
00:40 18.2 65.2 1011.8 0.0 SW 0.4 SW 0.0 0.0
00:45 18.0 66.7 1011.8 0.0 WSW 0.4 SW 0.0 0.0
00:50 17.8 67.2 1011.8 0.6 SW 5.6 SSW 0.0 0.0
00:55 17.8 67.0 1011.8 2.1 SW 6.4 SW 0.0 0.0
01:00 17.9 66.1 1011.8 0.3 SSW 4.6 SW 0.0 0.0
01:05 18.1 65.2 1011.8 2.7 SSW 7.8 SSW 0.0 0.0
01:10 18.5 63.4 1011.8 1.1 SSW 6.4 SSW 0.0 0.0
01:15 18.3 64.0 1011.8 1.1 SSW 9.5 SSW 0.0 0.0
01:20 18.4 63.6 1011.8 7.6 SSW 10.6 SSW 0.0 0.0
01:25 18.7 61.6 1011.8 3.8 SSW 10.2 SSW 0.0 0.0
01:30 18.3 63.5 1011.8 2.9 SSW 9.5 SSW 0.0 0.0
01:35 18.3 63.8 1011.8 4.5 SSW 8.1 SSW 0.0 0.0
01:40 18.3 63.5 1011.8 4.6 SSW 10.2 SW 0.0 0.0
01:45 18.6 61.7 1011.8 5.4 SSW 12.7 SW 0.0 0.0
01:50 18.7 61.4 1011.8 7.2 SSW 12.7 SSW 0.0 0.0
01:55 18.7 61.5 1011.8 4.8 SW 8.8 SW 0.0 0.0
02:00 18.6 62.0 1011.8 5.7 SSW 11.3 WSW 0.0 0.0
02:05 18.4 62.9 1011.8 5.3 SSW 10.6 SSW 0.0 0.0
02:10 18.8 60.7 1011.8 5.9 SSW 11.3 SSW 0.0 0.0
02:15 18.8 60.8 1011.8 5.6 SSW 9.2 SSW 0.0 0.0
02:20 18.3 63.2 1011.8 5.7 SSW 10.2 SSW 0.0 0.0
02:25 18.4 62.5 1011.8 5.3 SSW 12.3 SSW 0.0 0.0
02:30 18.5 62.3 1011.8 5.1 SSW 11.3 SW 0.0 0.0
02:35 18.4 62.7 1011.8 5.1 SSW 14.8 SSW 0.0 0.0
02:40 18.4 62.8 1011.8 5.1 SW 11.3 SW 0.0 0.0
02:45 18.0 64.4 1011.8 5.0 SSW 8.1 SW 0.0 0.0
02:50 17.8 65.9 1011.8 4.9 SSW 7.8 SW 0.0 0.0
02:55 17.7 66.2 1011.8 5.1 SSW 10.9 WSW 0.0 0.0
03:00 18.0 64.9 1011.8 3.8 SSW 9.2 SSW 0.0 0.0
03:05 18.4 63.1 1011.8 5.7 SSW 11.6 S 0.0 0.0
03:10 18.5 62.2 1011.8 4.0 SW 10.6 SSW 0.0 0.0
03:15 18.7 61.3 1011.8 4.8 SW 10.9 SW 0.0 0.0
03:20 18.7 61.9 1011.8 4.7 SSW 10.6 SSW 0.0 0.0
03:25 18.3 63.8 1011.8 5.0 SSW 8.8 SW 0.0 0.0
03:30 18.0 65.5 1011.8 5.0 SSW 9.5 SSW 0.0 0.0
03:35 18.2 64.7 1011.8 5.1 SSW 12.7 SW 0.0 0.0
03:40 18.5 63.4 1011.8 3.9 SW 10.6 SW 0.0 0.0
03:45 18.6 63.1 1011.8 4.1 SW 11.3 SW 0.0 0.0
03:50 18.4 64.1 1011.8 5.0 SSW 10.9 SSW 0.0 0.0
03:55 18.3 64.9 1011.8 4.3 SSW 10.2 SW 0.0 0.0
04:00 18.3 64.5 1011.8 3.2 SSW 11.3 SSW 0.0 0.0
04:05 18.2 65.4 1011.8 3.9 SSW 9.9 SW 0.0 0.0
04:10 18.1 66.2 1011.8 2.5 SW 9.9 SW 0.0 0.0
04:15 18.0 66.8 1011.8 3.7 SW 11.6 S 0.0 0.0
04:20 18.1 66.4 1011.8 4.4 SSW 11.6 SSW 0.0 0.0
04:25 18.0 67.1 1011.8 3.8 SSW 10.2 WSW 0.0 0.0
04:30 17.7 68.4 1011.8 3.5 SSW 8.8 SW 0.0 0.0
04:35 17.5 69.9 1011.8 2.3 SSW 8.8 SSW 0.0 0.0
04:40 17.8 68.8 1011.8 3.8 SSW 13.1 SSW 0.0 0.0
04:45 18.0 68.1 1011.8 3.1 SSW 9.2 SW 0.0 0.0
04:50 17.9 68.5 1011.8 2.1 SSW 7.1 SW 0.0 0.0
04:55 18.0 68.3 1011.8 2.7 SSW 9.9 SSW 0.0 0.0
05:00 18.1 67.7 1011.8 3.2 SSW 12.3 SSW 0.0 0.0
05:05 18.0 68.2 1011.8 3.8 SSW 9.5 SW 0.0 0.0
05:10 18.0 68.4 1011.8 3.8 SSW 9.9 SW 0.0 0.1
05:15 18.0 68.6 1011.8 2.2 SSW 8.1 SW 0.0 1.0
05:20 17.8 69.7 1011.8 2.7 SSW 7.1 SSW 0.0 2.9
05:25 17.7 70.4 1011.8 2.0 SSW 7.1 SSW 0.0 5.2
05:30 17.4 72.2 1011.8 2.4 SSW 7.1 SSW 0.0 8.3
05:35 17.5 72.0 1011.8 2.2 SSW 10.6 SW 0.0 11.5
05:40 17.7 71.9 1011.8 1.0 SSW 7.4 SW 0.0 28.4
05:45 17.8 71.7 1011.8 0.0 SSW 1.4 SSW 0.0 45.2
05:50 17.8 72.1 1011.8 0.6 SSW 7.1 SW 0.0 57.0
05:55 18.1 70.3 1011.8 2.9 SSW 11.3 SSW 0.0 70.3
06:00 18.3 69.3 1011.8 3.6 SSW 12.0 SSW 0.0 83.1
06:05 18.6 67.8 1011.8 5.9 SSW 12.3 SSW 0.0 96.9
06:10 18.8 67.2 1011.8 2.9 SSW 12.0 SSW 0.0 110.5
06:15 19.0 66.9 1011.8 3.2 SSW 10.6 SW 0.0 124.5
06:20 19.0 67.4 1011.8 0.8 SSW 6.4 SSW 0.0 138.8
06:25 19.2 66.6 1011.8 6.2 SSW 10.2 SW 0.0 154.6
06:30 19.5 65.6 1011.8 1.1 SSW 7.4 S 0.0 169.4
06:35 19.9 64.0 1011.8 3.4 SSW 10.9 SW 0.0 185.3
06:40 20.3 63.3 1011.8 0.5 SSW 6.7 SW 0.0 200.2
06:45 20.6 62.8 1011.8 0.9 SSW 7.8 S 0.0 215.1
Màxima 20.6 72.2 1011.8 7.9 SW 14.8 SSW 0.0 215.1
Mínima 17.4 53.0 1011.8
Total 0.0